createdAt,value
2019-03-01T00:00:20.872Z,5.20
2019-03-01T00:02:48.154Z,9.88
2019-03-01T00:05:44.465Z,11.85
2019-03-01T00:08:17.792Z,10.82
2019-03-01T00:11:35.742Z,6.78
2019-03-01T00:14:33.874Z,5.97
2019-03-01T00:17:30.354Z,6.30
2019-03-01T00:20:41.311Z,5.97
2019-03-01T00:23:58.407Z,11.25
2019-03-01T00:27:00.205Z,11.53
2019-03-01T00:30:22.023Z,6.85
2019-03-01T00:32:58.593Z,8.25
2019-03-01T00:36:10.718Z,8.73
2019-03-01T00:38:58.419Z,6.70
2019-03-01T00:41:54.557Z,3.30
2019-03-01T00:44:40.313Z,5.47
2019-03-01T00:47:07.726Z,6.15
2019-03-01T00:49:35.455Z,5.75
2019-03-01T00:52:02.995Z,6.25
2019-03-01T00:54:30.412Z,4.53
2019-03-01T00:56:57.838Z,9.55
2019-03-01T00:59:25.129Z,10.55
2019-03-01T01:01:52.607Z,12.65
2019-03-01T01:04:20.001Z,9.60
2019-03-01T01:06:47.334Z,6.97
2019-03-01T01:09:14.942Z,7.08
2019-03-01T01:11:42.676Z,10.95
2019-03-01T01:14:10.098Z,6.28
2019-03-01T01:16:37.440Z,8.63
2019-03-01T01:19:05.043Z,8.78
2019-03-01T01:21:32.343Z,5.00
2019-03-01T01:23:59.767Z,4.78
2019-03-01T01:26:27.427Z,8.35
2019-03-01T01:28:54.849Z,8.78
2019-03-01T01:31:22.140Z,5.45
2019-03-01T01:33:49.526Z,7.17
2019-03-01T01:36:16.941Z,5.42
2019-03-01T01:38:44.340Z,4.87
2019-03-01T01:41:11.766Z,8.20
2019-03-01T01:43:39.203Z,4.70
2019-03-01T01:46:06.939Z,7.90
2019-03-01T01:48:34.340Z,5.15
2019-03-01T01:51:01.648Z,5.17
2019-03-01T01:53:29.082Z,4.45
2019-03-01T01:55:56.483Z,5.55
2019-03-01T01:58:23.893Z,7.62
2019-03-01T02:00:51.223Z,11.70
2019-03-01T02:03:18.549Z,10.00
2019-03-01T02:05:46.029Z,7.45
2019-03-01T02:08:13.443Z,14.15
2019-03-01T02:10:40.915Z,10.98
2019-03-01T02:13:08.331Z,9.93
2019-03-01T02:15:35.709Z,7.37
2019-03-01T02:18:03.594Z,7.12
2019-03-01T02:20:30.903Z,7.05
2019-03-01T02:22:58.275Z,5.37
2019-03-01T02:25:25.559Z,6.33
2019-03-01T02:27:52.898Z,3.83
2019-03-01T02:30:22.584Z,9.43
2019-03-01T02:32:50.317Z,6.87
2019-03-01T02:35:19.837Z,10.43
2019-03-01T02:37:47.238Z,8.95
2019-03-01T02:40:15.324Z,6.65
2019-03-01T02:42:42.723Z,5.20
2019-03-01T02:45:12.025Z,6.47
2019-03-01T02:47:39.392Z,12.28
2019-03-01T02:50:07.555Z,11.00
2019-03-01T02:52:34.916Z,12.05
2019-03-01T02:55:02.345Z,9.93
2019-03-01T02:57:29.646Z,7.55
2019-03-01T02:59:57.351Z,5.83
2019-03-01T03:02:24.752Z,4.92
2019-03-01T03:04:52.057Z,5.97
2019-03-01T03:07:27.599Z,6.87
2019-03-01T03:09:55.069Z,5.87
2019-03-01T03:12:22.461Z,7.80
2019-03-01T03:14:49.905Z,9.98
2019-03-01T03:17:17.297Z,5.80
2019-03-01T03:19:44.720Z,5.40
2019-03-01T03:22:12.114Z,4.35
2019-03-01T03:24:39.538Z,6.45
2019-03-01T03:27:06.925Z,5.12
2019-03-01T03:29:34.390Z,6.50
2019-03-01T03:32:01.770Z,3.90
2019-03-01T03:34:29.462Z,8.48
2019-03-01T03:36:56.777Z,6.53
2019-03-01T03:39:24.074Z,3.77
2019-03-01T03:41:51.490Z,4.65
2019-03-01T03:44:19.010Z,4.50
2019-03-01T03:46:46.434Z,3.90
2019-03-01T03:49:13.878Z,7.05
2019-03-01T03:51:41.276Z,4.65
2019-03-01T03:54:08.659Z,4.65
2019-03-01T03:56:36.078Z,5.85
2019-03-01T03:59:03.748Z,4.90
2019-03-01T04:01:31.057Z,4.70
2019-03-01T04:03:58.354Z,5.70
2019-03-01T04:06:26.406Z,4.35
2019-03-01T04:08:53.833Z,5.05
2019-03-01T04:11:21.235Z,3.45
2019-03-01T04:13:48.551Z,5.97
2019-03-01T04:16:15.944Z,6.20
2019-03-01T04:18:43.346Z,4.15
2019-03-01T04:21:10.816Z,6.00
2019-03-01T04:23:38.198Z,6.67
2019-03-01T04:26:05.578Z,8.75
2019-03-01T04:28:33.034Z,6.42
2019-03-01T04:31:02.704Z,6.75
2019-03-01T04:33:30.536Z,5.00
2019-03-01T04:35:57.937Z,5.03
2019-03-01T04:38:25.292Z,4.85
2019-03-01T04:40:52.710Z,8.85
2019-03-01T04:43:20.000Z,4.60
2019-03-01T04:45:47.703Z,4.10
2019-03-01T04:48:15.281Z,5.25
2019-03-01T04:50:42.911Z,5.45
2019-03-01T04:53:10.310Z,4.30
2019-03-01T04:55:37.710Z,6.55
2019-03-01T04:58:05.003Z,5.55
2019-03-01T05:00:32.420Z,4.95
2019-03-01T05:03:00.196Z,7.50
2019-03-01T05:05:27.577Z,4.03
2019-03-01T05:07:56.018Z,5.90
2019-03-01T05:10:23.412Z,4.42
2019-03-01T05:12:53.802Z,4.12
2019-03-01T05:15:22.391Z,6.10
2019-03-01T05:17:52.568Z,8.43
2019-03-01T05:20:20.013Z,14.60
2019-03-01T05:22:47.770Z,22.07
2019-03-01T05:25:15.400Z,26.20
2019-03-01T05:27:42.790Z,29.02
2019-03-01T05:30:11.301Z,13.50
2019-03-01T05:32:39.106Z,10.28
2019-03-01T05:35:06.823Z,5.17
2019-03-01T05:37:34.241Z,5.30
2019-03-01T05:40:04.383Z,4.55
2019-03-01T05:42:31.950Z,6.30
2019-03-01T05:45:00.568Z,5.53
2019-03-01T05:47:28.379Z,7.35
2019-03-01T05:49:55.683Z,6.33
2019-03-01T05:52:23.071Z,4.17
2019-03-01T05:54:50.458Z,4.17
2019-03-01T05:57:17.870Z,3.65
2019-03-01T05:59:45.286Z,5.22
2019-03-01T06:02:38.152Z,5.83
2019-03-01T06:05:15.028Z,8.20
2019-03-01T06:08:23.840Z,3.85
2019-03-01T06:11:01.635Z,3.02
2019-03-01T06:13:54.540Z,4.33
2019-03-01T06:16:45.625Z,8.83
2019-03-01T06:19:33.538Z,6.42
2019-03-01T06:22:38.434Z,7.72
2019-03-01T06:25:22.433Z,4.65
2019-03-01T06:28:05.969Z,5.28
2019-03-01T06:31:27.526Z,9.18
2019-03-01T06:34:23.357Z,4.20
2019-03-01T06:37:20.827Z,3.55
2019-03-01T06:40:52.241Z,3.42
2019-03-01T06:44:03.098Z,5.10
2019-03-01T06:47:36.479Z,3.77
2019-03-01T06:50:24.538Z,24.55
2019-03-01T06:52:51.872Z,81.12
2019-03-01T06:55:52.719Z,150.20
2019-03-01T06:58:24.883Z,87.22
2019-03-01T07:00:56.703Z,84.37
2019-03-01T07:03:24.339Z,81.82
2019-03-01T07:05:52.067Z,78.05
2019-03-01T07:08:19.460Z,77.62
2019-03-01T07:10:46.844Z,79.50
2019-03-01T07:13:14.252Z,20.02
2019-03-01T07:15:41.655Z,6.65
2019-03-01T07:18:09.058Z,5.95
2019-03-01T07:20:36.502Z,4.95
2019-03-01T07:23:03.901Z,4.45
2019-03-01T07:25:31.228Z,4.20
2019-03-01T07:27:58.910Z,2.60
2019-03-01T07:30:26.310Z,7.53
2019-03-01T07:32:53.686Z,3.60
2019-03-01T07:35:21.339Z,2.77
2019-03-01T07:37:48.732Z,2.72
2019-03-01T07:40:16.123Z,3.37
2019-03-01T07:42:43.845Z,2.80
2019-03-01T07:45:11.265Z,4.22
2019-03-01T07:47:38.692Z,4.37
2019-03-01T07:50:06.823Z,4.10
2019-03-01T07:52:34.217Z,4.97
2019-03-01T07:55:01.529Z,3.75
2019-03-01T07:57:31.469Z,3.92
2019-03-01T07:59:58.457Z,7.80
2019-03-01T08:02:25.877Z,3.98
2019-03-01T08:04:53.519Z,2.98
2019-03-01T08:07:23.619Z,6.22
2019-03-01T08:09:50.172Z,5.97
2019-03-01T08:12:17.630Z,4.37
2019-03-01T08:14:45.049Z,2.65
2019-03-01T08:17:12.487Z,3.15
2019-03-01T08:19:39.888Z,4.33
2019-03-01T08:22:07.197Z,2.75
2019-03-01T08:24:34.624Z,2.50
2019-03-01T08:27:01.946Z,4.08
2019-03-01T08:29:30.627Z,3.52
2019-03-01T08:31:58.795Z,1.72
2019-03-01T08:34:26.238Z,2.65
2019-03-01T08:36:53.547Z,2.62
2019-03-01T08:39:21.000Z,2.30
2019-03-01T08:41:48.395Z,3.35
2019-03-01T08:44:19.261Z,1.00
2019-03-01T08:46:46.505Z,4.40
2019-03-01T08:49:14.012Z,2.40
2019-03-01T08:51:41.334Z,2.60
2019-03-01T08:54:08.683Z,5.17
2019-03-01T08:56:36.077Z,2.50
2019-03-01T08:59:03.517Z,2.20
2019-03-01T09:01:31.791Z,3.20
2019-03-01T09:04:02.449Z,2.92
2019-03-01T09:06:29.841Z,4.05
2019-03-01T09:08:57.536Z,4.40
2019-03-01T09:11:25.026Z,3.22
2019-03-01T09:13:52.469Z,2.02
2019-03-01T09:16:19.909Z,2.20
2019-03-01T09:18:50.126Z,1.95
2019-03-01T09:21:17.268Z,3.35
2019-03-01T09:23:47.991Z,2.17
2019-03-01T09:26:16.717Z,2.15
2019-03-01T09:28:43.545Z,2.95
2019-03-01T09:31:10.999Z,2.40
2019-03-01T09:33:38.422Z,2.05
2019-03-01T09:36:14.474Z,1.90
2019-03-01T09:38:42.848Z,2.50
2019-03-01T09:41:11.258Z,2.55
2019-03-01T09:43:38.681Z,1.87
2019-03-01T09:46:06.001Z,1.80
2019-03-01T09:48:33.762Z,5.55
2019-03-01T09:51:01.237Z,1.50
2019-03-01T09:53:30.672Z,1.85
2019-03-01T09:56:00.007Z,1.50
2019-03-01T09:58:27.080Z,1.70
2019-03-01T10:01:04.309Z,1.57
2019-03-01T10:03:31.746Z,3.42
2019-03-01T10:05:59.052Z,4.15
2019-03-01T10:08:26.519Z,2.40
2019-03-01T10:10:53.985Z,3.05
2019-03-01T10:13:21.434Z,2.77
2019-03-01T10:15:48.855Z,3.70
2019-03-01T10:18:16.359Z,5.17
2019-03-01T10:20:43.910Z,4.20
2019-03-01T10:23:11.367Z,9.20
2019-03-01T10:25:38.790Z,5.62
2019-03-01T10:28:06.220Z,4.22
2019-03-01T10:30:33.851Z,6.17
2019-03-01T10:33:01.334Z,3.90
2019-03-01T10:35:28.778Z,2.77
2019-03-01T10:37:56.204Z,2.33
2019-03-01T10:40:23.648Z,2.05
2019-03-01T10:42:51.085Z,3.65
2019-03-01T10:45:20.937Z,3.67
2019-03-01T10:47:48.380Z,2.60
2019-03-01T10:50:15.757Z,2.05
2019-03-01T10:52:43.175Z,1.70
2019-03-01T10:55:12.478Z,3.35
2019-03-01T10:57:39.886Z,1.57
2019-03-01T11:00:20.949Z,2.25
2019-03-01T11:02:48.677Z,2.10
2019-03-01T11:05:16.097Z,2.65
2019-03-01T11:07:44.006Z,5.15
2019-03-01T11:10:14.073Z,4.58
2019-03-01T11:12:41.495Z,4.92
2019-03-01T11:15:09.959Z,1.87
2019-03-01T11:17:37.393Z,2.45
2019-03-01T11:20:04.943Z,2.65
2019-03-01T11:22:32.416Z,2.60
2019-03-01T11:24:59.866Z,1.40
2019-03-01T11:27:27.207Z,2.60
2019-03-01T11:29:54.701Z,2.95
2019-03-01T11:32:22.113Z,2.80
2019-03-01T11:34:49.548Z,2.40
2019-03-01T11:37:17.074Z,2.60
2019-03-01T11:39:44.480Z,3.22
2019-03-01T11:42:11.893Z,3.25
2019-03-01T11:44:39.352Z,4.45
2019-03-01T11:47:06.757Z,3.10
2019-03-01T11:49:34.206Z,1.80
2019-03-01T11:52:01.539Z,2.00
2019-03-01T11:54:29.001Z,1.60
2019-03-01T11:56:56.431Z,1.50
2019-03-01T11:59:23.880Z,1.30
2019-03-01T12:01:51.294Z,1.10
2019-03-01T12:04:18.773Z,1.85
2019-03-01T12:06:46.226Z,1.30
2019-03-01T12:09:13.998Z,0.93
2019-03-01T12:11:41.448Z,1.30
2019-03-01T12:14:08.911Z,0.90
2019-03-01T12:16:36.326Z,1.17
2019-03-01T12:19:04.066Z,1.12
2019-03-01T12:21:31.477Z,1.67
2019-03-01T12:23:58.870Z,1.02
2019-03-01T12:26:26.207Z,1.30
2019-03-01T12:28:53.615Z,1.35
2019-03-01T12:31:21.076Z,1.30
2019-03-01T12:33:48.519Z,2.22
2019-03-01T12:36:15.939Z,1.50
2019-03-01T12:38:43.492Z,1.50
2019-03-01T12:41:11.791Z,1.67
2019-03-01T12:43:39.202Z,1.30
2019-03-01T12:46:06.609Z,0.80
2019-03-01T12:48:34.059Z,1.17
2019-03-01T12:51:01.859Z,1.67
2019-03-01T12:53:29.385Z,0.90
2019-03-01T12:55:56.843Z,1.57
2019-03-01T12:58:24.290Z,1.20
2019-03-01T13:00:52.349Z,2.30
2019-03-01T13:03:19.777Z,1.30
2019-03-01T13:05:47.182Z,1.10
2019-03-01T13:08:15.784Z,1.50
2019-03-01T13:10:43.870Z,0.70
2019-03-01T13:13:11.334Z,0.70
2019-03-01T13:15:38.760Z,0.88
2019-03-01T13:18:06.226Z,0.93
2019-03-01T13:20:36.653Z,2.17
2019-03-01T13:23:04.997Z,0.70
2019-03-01T13:25:32.247Z,0.75
2019-03-01T13:27:59.730Z,1.00
2019-03-01T13:30:27.153Z,0.50
2019-03-01T13:32:55.174Z,0.65
2019-03-01T13:35:26.108Z,0.90
2019-03-01T13:37:54.890Z,1.30
2019-03-01T13:40:24.550Z,0.70
2019-03-01T13:42:51.756Z,0.60
2019-03-01T13:45:19.642Z,0.80
2019-03-01T13:47:47.096Z,0.88
2019-03-01T13:50:15.389Z,2.17
2019-03-01T13:52:42.937Z,1.40
2019-03-01T13:55:10.347Z,1.20
2019-03-01T13:57:37.804Z,1.77
2019-03-01T14:00:06.419Z,1.05
2019-03-01T14:02:33.883Z,1.80
2019-03-01T14:05:01.354Z,1.37
2019-03-01T14:07:29.118Z,1.35
2019-03-01T14:09:56.584Z,1.30
2019-03-01T14:12:24.350Z,1.00
2019-03-01T14:14:52.183Z,1.27
2019-03-01T14:17:21.119Z,1.37
2019-03-01T14:19:49.067Z,2.80
2019-03-01T14:22:16.541Z,1.30
2019-03-01T14:24:44.015Z,1.82
2019-03-01T14:27:11.513Z,1.40
2019-03-01T14:29:38.962Z,1.70
2019-03-01T14:32:06.364Z,1.50
2019-03-01T14:34:34.097Z,1.30
2019-03-01T14:37:01.587Z,1.45
2019-03-01T14:39:29.109Z,1.30
2019-03-01T14:41:56.545Z,1.00
2019-03-01T14:44:23.909Z,1.62
2019-03-01T14:46:52.889Z,0.93
2019-03-01T14:49:21.875Z,1.15
2019-03-01T14:51:50.405Z,1.22
2019-03-01T14:54:18.084Z,1.82
2019-03-01T14:56:52.447Z,1.00
2019-03-01T14:59:38.025Z,1.40
2019-03-01T15:02:39.800Z,1.67
2019-03-01T15:05:06.457Z,1.62
2019-03-01T15:07:36.300Z,1.22
2019-03-01T15:10:04.756Z,1.82
2019-03-01T15:12:32.383Z,1.67
2019-03-01T15:15:26.423Z,1.70
2019-03-01T15:17:57.013Z,1.72
2019-03-01T15:20:24.596Z,1.77
2019-03-01T15:22:52.083Z,2.10
2019-03-01T15:25:19.539Z,2.05
2019-03-01T15:27:47.420Z,2.05
2019-03-01T15:30:14.998Z,2.65
2019-03-01T15:32:42.479Z,4.53
2019-03-01T15:35:10.052Z,4.85
2019-03-01T15:37:37.555Z,3.52
2019-03-01T15:40:07.271Z,3.60
2019-03-01T15:42:34.538Z,3.45
2019-03-01T15:45:05.049Z,3.05
2019-03-01T15:47:31.214Z,2.52
2019-03-01T15:49:58.725Z,2.35
2019-03-01T15:52:26.189Z,2.72
2019-03-01T15:54:53.636Z,3.17
2019-03-01T15:57:30.406Z,2.60
2019-03-01T15:59:57.840Z,2.65
2019-03-01T16:02:25.644Z,3.42
2019-03-01T16:04:53.128Z,3.50
2019-03-01T16:07:20.839Z,3.50
2019-03-01T16:09:48.327Z,3.40
2019-03-01T16:12:15.728Z,2.92
2019-03-01T16:14:44.123Z,2.65
2019-03-01T16:17:11.904Z,3.42
2019-03-01T16:19:39.395Z,2.95
2019-03-01T16:22:07.190Z,2.92
2019-03-01T16:24:34.638Z,8.08
2019-03-01T16:27:02.010Z,6.67
2019-03-01T16:29:29.432Z,5.22
2019-03-01T16:31:56.887Z,5.47
2019-03-01T16:34:24.227Z,5.62
2019-03-01T16:36:54.080Z,5.85
2019-03-01T16:39:23.820Z,4.20
2019-03-01T16:41:51.908Z,3.90
2019-03-01T16:44:19.565Z,6.17
2019-03-01T16:46:47.108Z,5.35
2019-03-01T16:49:14.533Z,5.42
2019-03-01T16:51:42.198Z,4.55
2019-03-01T16:54:15.287Z,4.15
2019-03-01T16:56:39.443Z,6.33
2019-03-01T16:59:07.288Z,5.25
2019-03-01T17:01:34.912Z,4.45
2019-03-01T17:04:02.442Z,5.37
2019-03-01T17:06:29.887Z,5.28
2019-03-01T17:08:57.347Z,4.55
2019-03-01T17:11:24.819Z,6.70
2019-03-01T17:13:52.584Z,6.55
2019-03-01T17:16:20.497Z,6.45
2019-03-01T17:18:49.448Z,6.20
2019-03-01T17:21:17.183Z,5.90
2019-03-01T17:23:44.688Z,7.65
2019-03-01T17:26:12.122Z,9.63
2019-03-01T17:28:39.659Z,9.10
2019-03-01T17:31:07.126Z,11.45
2019-03-01T17:33:34.531Z,16.50
2019-03-01T17:36:01.989Z,10.65
2019-03-01T17:38:29.437Z,12.37
2019-03-01T17:40:56.855Z,9.20
2019-03-01T17:43:25.934Z,7.85
2019-03-01T17:45:54.389Z,6.97
2019-03-01T17:48:23.198Z,7.03
2019-03-01T17:50:50.554Z,7.87
2019-03-01T17:53:18.067Z,7.17
2019-03-01T17:55:45.595Z,5.85
2019-03-01T17:58:15.189Z,6.97
2019-03-01T18:00:42.996Z,8.25
2019-03-01T18:03:10.434Z,9.73
2019-03-01T18:05:40.614Z,7.15
2019-03-01T18:08:07.465Z,8.05
2019-03-01T18:10:34.915Z,8.00
2019-03-01T18:13:02.400Z,7.80
2019-03-01T18:15:29.867Z,8.55
2019-03-01T18:17:57.336Z,7.05
2019-03-01T18:20:26.619Z,9.18
2019-03-01T18:22:54.520Z,10.48
2019-03-01T18:25:26.122Z,11.45
2019-03-01T18:27:53.029Z,8.65
2019-03-01T18:30:21.453Z,8.78
2019-03-01T18:32:49.048Z,10.18
2019-03-01T18:35:16.517Z,7.10
2019-03-01T18:37:44.028Z,8.10
2019-03-01T18:40:13.454Z,8.53
2019-03-01T18:42:40.967Z,8.28
2019-03-01T18:45:11.738Z,7.12
2019-03-01T18:47:39.225Z,8.38
2019-03-01T18:50:14.219Z,9.53
2019-03-01T18:52:41.745Z,10.20
2019-03-01T18:55:09.393Z,14.50
2019-03-01T18:57:38.620Z,9.10
2019-03-01T19:00:17.648Z,11.08
2019-03-01T19:02:45.896Z,10.40
2019-03-01T19:05:13.456Z,10.78
2019-03-01T19:07:41.094Z,11.35
2019-03-01T19:10:09.259Z,9.95
2019-03-01T19:12:36.762Z,10.28
2019-03-01T19:15:04.854Z,10.63
2019-03-01T19:17:32.420Z,11.30
2019-03-01T19:20:01.983Z,11.03
2019-03-01T19:22:29.692Z,11.12
2019-03-01T19:24:57.411Z,13.32
2019-03-01T19:27:25.067Z,12.07
2019-03-01T19:29:52.794Z,12.60
2019-03-01T19:32:23.579Z,13.43
2019-03-01T19:34:52.781Z,14.40
2019-03-01T19:37:20.155Z,15.20
2019-03-01T19:39:47.695Z,15.90
2019-03-01T19:42:15.258Z,14.58
2019-03-01T19:44:43.064Z,17.45
2019-03-01T19:47:10.757Z,18.62
2019-03-01T19:49:40.257Z,20.00
2019-03-01T19:52:09.347Z,19.45
2019-03-01T19:54:37.565Z,20.12
2019-03-01T19:57:05.174Z,17.65
2019-03-01T19:59:33.119Z,23.07
2019-03-01T20:02:00.733Z,25.40
2019-03-01T20:04:28.337Z,22.02
2019-03-01T20:06:56.561Z,16.07
2019-03-01T20:09:25.177Z,15.50
2019-03-01T20:11:55.464Z,17.50
2019-03-01T20:14:23.331Z,16.73
2019-03-01T20:16:50.995Z,19.27
2019-03-01T20:19:20.884Z,24.32
2019-03-01T20:21:48.129Z,25.92
2019-03-01T20:24:15.710Z,20.12
2019-03-01T20:26:43.293Z,19.30
2019-03-01T20:29:11.485Z,18.98
2019-03-01T20:31:40.489Z,18.45
2019-03-01T20:34:08.448Z,19.75
2019-03-01T20:36:36.827Z,20.40
2019-03-01T20:39:04.772Z,21.87
2019-03-01T20:41:32.302Z,21.87
2019-03-01T20:44:01.110Z,24.87
2019-03-01T20:46:28.711Z,23.38
2019-03-01T20:49:00.643Z,24.50
2019-03-01T20:51:28.021Z,28.20
2019-03-01T20:53:56.305Z,22.87
2019-03-01T20:56:24.079Z,19.32
2019-03-01T20:58:51.757Z,20.10
2019-03-01T21:01:19.378Z,22.42
2019-03-01T21:03:47.233Z,23.55
2019-03-01T21:06:15.450Z,17.82
2019-03-01T21:08:43.159Z,15.75
2019-03-01T21:11:10.702Z,21.15
2019-03-01T21:13:38.253Z,23.05
2019-03-01T21:16:06.166Z,19.90
2019-03-01T21:18:34.182Z,21.97
2019-03-01T21:21:02.885Z,23.50
2019-03-01T21:23:30.401Z,21.68
2019-03-01T21:25:58.039Z,26.33
2019-03-01T21:28:25.906Z,26.05
2019-03-01T21:30:55.657Z,19.67
2019-03-01T21:33:24.061Z,27.30
2019-03-01T21:35:53.161Z,24.67
2019-03-01T21:38:20.816Z,26.75
2019-03-01T21:40:48.279Z,28.20
2019-03-01T21:43:15.945Z,24.63
2019-03-01T21:45:43.851Z,22.67
2019-03-01T21:48:11.453Z,23.80
2019-03-01T21:50:42.429Z,23.10
2019-03-01T21:53:08.653Z,25.15
2019-03-01T21:55:36.114Z,26.55
2019-03-01T21:58:06.472Z,27.05
2019-03-01T22:00:34.740Z,28.70
2019-03-01T22:03:02.251Z,32.90
2019-03-01T22:05:29.700Z,32.55
2019-03-01T22:07:57.155Z,32.70
2019-03-01T22:10:24.676Z,32.58
2019-03-01T22:12:52.121Z,40.35
2019-03-01T22:15:21.559Z,28.75
2019-03-01T22:17:50.314Z,30.25
2019-03-01T22:20:18.509Z,29.60
2019-03-01T22:22:45.988Z,32.80
2019-03-01T22:25:13.597Z,37.10
2019-03-01T22:27:42.198Z,38.38
2019-03-01T22:30:12.250Z,30.35
2019-03-01T22:32:42.317Z,34.08
2019-03-01T22:35:09.605Z,29.90
2019-03-01T22:37:37.103Z,34.73
2019-03-01T22:40:05.798Z,27.77
2019-03-01T22:42:33.206Z,23.22
2019-03-01T22:45:00.628Z,24.30
2019-03-01T22:47:28.129Z,25.37
2019-03-01T22:49:55.970Z,24.43
2019-03-01T22:52:26.706Z,23.42
2019-03-01T22:54:52.712Z,28.05
2019-03-01T23:02:44.378Z,34.65
2019-03-01T23:12:30.699Z,43.70
2019-03-01T23:22:12.640Z,45.20
2019-03-01T23:29:08.912Z,43.63
